sensor_id;sensor_type;location;lat;lon;timestamp;pressure;altitude;pressure_sealevel;temperature;humidity
38688;BME280;24444;53.216;-6.664;2022-09-16T00:00:53;101031.99;;;6.42;100.00
38688;BME280;24444;53.216;-6.664;2022-09-16T00:03:21;101032.36;;;6.24;100.00
38688;BME280;24444;53.216;-6.664;2022-09-16T00:08:46;101035.74;;;6.33;98.29
38688;BME280;24444;53.216;-6.664;2022-09-16T00:11:15;101035.96;;;6.25;98.68
38688;BME280;24444;53.216;-6.664;2022-09-16T00:13:43;101040.69;;;6.24;98.73
38688;BME280;24444;53.216;-6.664;2022-09-16T00:16:12;101037.99;;;5.82;99.82
38688;BME280;24444;53.216;-6.664;2022-09-16T00:18:42;101041.37;;;6.33;99.67
38688;BME280;24444;53.216;-6.664;2022-09-16T00:21:09;101044.38;;;5.98;99.15
38688;BME280;24444;53.216;-6.664;2022-09-16T00:23:37;101052.33;;;6.21;99.81
38688;BME280;24444;53.216;-6.664;2022-09-16T00:26:05;101053.47;;;6.25;100.00
38688;BME280;24444;53.216;-6.664;2022-09-16T00:28:32;101053.46;;;6.07;100.00
38688;BME280;24444;53.216;-6.664;2022-09-16T00:31:01;101056.22;;;5.82;100.00
38688;BME280;24444;53.216;-6.664;2022-09-16T00:33:29;101057.41;;;6.09;100.00
38688;BME280;24444;53.216;-6.664;2022-09-16T00:36:04;101056.34;;;6.27;100.00
38688;BME280;24444;53.216;-6.664;2022-09-16T00:38:32;101059.08;;;6.29;100.00
38688;BME280;24444;53.216;-6.664;2022-09-16T00:41:00;101062.01;;;6.05;100.00
38688;BME280;24444;53.216;-6.664;2022-09-16T00:43:28;101063.34;;;6.11;100.00
38688;BME280;24444;53.216;-6.664;2022-09-16T00:45:57;101068.91;;;6.61;100.00
38688;BME280;24444;53.216;-6.664;2022-09-16T00:48:27;101064.85;;;6.41;100.00
38688;BME280;24444;53.216;-6.664;2022-09-16T00:50:59;101066.13;;;5.86;100.00
38688;BME280;24444;53.216;-6.664;2022-09-16T00:53:30;101067.32;;;5.82;100.00
38688;BME280;24444;53.216;-6.664;2022-09-16T00:56:01;101069.66;;;6.01;100.00
38688;BME280;24444;53.216;-6.664;2022-09-16T00:58:33;101071.93;;;5.43;100.00
38688;BME280;24444;53.216;-6.664;2022-09-16T01:01:02;101073.03;;;6.08;100.00
38688;BME280;24444;53.216;-6.664;2022-09-16T01:03:31;101071.39;;;5.87;100.00
38688;BME280;24444;53.216;-6.664;2022-09-16T01:06:00;101071.36;;;5.90;100.00
38688;BME280;24444;53.216;-6.664;2022-09-16T01:08:28;101077.39;;;5.39;100.00
38688;BME280;24444;53.216;-6.664;2022-09-16T01:10:56;101077.81;;;5.80;100.00
38688;BME280;24444;53.216;-6.664;2022-09-16T01:13:23;101075.37;;;5.41;100.00
38688;BME280;24444;53.216;-6.664;2022-09-16T01:15:57;101075.49;;;5.25;100.00
38688;BME280;24444;53.216;-6.664;2022-09-16T01:18:33;101076.34;;;6.11;100.00
38688;BME280;24444;53.216;-6.664;2022-09-16T01:21:13;101073.29;;;6.05;100.00
38688;BME280;24444;53.216;-6.664;2022-09-16T01:24:32;101075.85;;;5.30;100.00
38688;BME280;24444;53.216;-6.664;2022-09-16T01:27:47;101076.66;;;5.88;100.00
38688;BME280;24444;53.216;-6.664;2022-09-16T01:30:42;101079.24;;;5.30;100.00
38688;BME280;24444;53.216;-6.664;2022-09-16T01:33:17;101079.32;;;5.74;100.00
38688;BME280;24444;53.216;-6.664;2022-09-16T01:35:54;101080.86;;;5.64;100.00
38688;BME280;24444;53.216;-6.664;2022-09-16T01:38:46;101082.41;;;5.76;100.00
38688;BME280;24444;53.216;-6.664;2022-09-16T01:41:21;101085.38;;;6.06;100.00
38688;BME280;24444;53.216;-6.664;2022-09-16T01:43:57;101081.50;;;5.42;100.00
38688;BME280;24444;53.216;-6.664;2022-09-16T01:46:32;101078.97;;;5.72;100.00
38688;BME280;24444;53.216;-6.664;2022-09-16T01:49:07;101090.84;;;5.38;100.00
38688;BME280;24444;53.216;-6.664;2022-09-16T01:51:42;101091.75;;;5.27;100.00
38688;BME280;24444;53.216;-6.664;2022-09-16T01:54:17;101092.42;;;5.41;100.00
38688;BME280;24444;53.216;-6.664;2022-09-16T01:56:51;101094.63;;;5.38;100.00
38688;BME280;24444;53.216;-6.664;2022-09-16T01:59:22;101098.86;;;5.96;100.00
38688;BME280;24444;53.216;-6.664;2022-09-16T02:01:54;101102.90;;;5.33;100.00
38688;BME280;24444;53.216;-6.664;2022-09-16T02:04:28;101106.48;;;5.19;100.00
38688;BME280;24444;53.216;-6.664;2022-09-16T02:06:57;101105.72;;;5.47;100.00
38688;BME280;24444;53.216;-6.664;2022-09-16T02:09:31;101103.90;;;5.26;100.00
38688;BME280;24444;53.216;-6.664;2022-09-16T02:12:03;101103.47;;;5.69;100.00
38688;BME280;24444;53.216;-6.664;2022-09-16T02:14:34;101101.89;;;5.54;100.00
38688;BME280;24444;53.216;-6.664;2022-09-16T02:17:06;101104.59;;;4.92;100.00
38688;BME280;24444;53.216;-6.664;2022-09-16T02:19:38;101108.44;;;5.22;100.00
38688;BME280;24444;53.216;-6.664;2022-09-16T02:22:11;101100.22;;;5.49;100.00
38688;BME280;24444;53.216;-6.664;2022-09-16T02:24:40;101097.02;;;4.96;100.00
38688;BME280;24444;53.216;-6.664;2022-09-16T02:27:11;101099.89;;;5.03;100.00
38688;BME280;24444;53.216;-6.664;2022-09-16T02:29:43;101098.19;;;5.14;100.00
38688;BME280;24444;53.216;-6.664;2022-09-16T02:32:13;101099.63;;;4.81;100.00
38688;BME280;24444;53.216;-6.664;2022-09-16T02:34:43;101096.08;;;5.07;100.00
38688;BME280;24444;53.216;-6.664;2022-09-16T02:37:16;101098.77;;;5.00;100.00
38688;BME280;24444;53.216;-6.664;2022-09-16T02:39:47;101100.11;;;4.91;100.00
38688;BME280;24444;53.216;-6.664;2022-09-16T02:42:15;101098.32;;;4.56;100.00
38688;BME280;24444;53.216;-6.664;2022-09-16T02:44:43;101100.39;;;4.31;100.00
38688;BME280;24444;53.216;-6.664;2022-09-16T02:47:16;101099.59;;;4.93;100.00
38688;BME280;24444;53.216;-6.664;2022-09-16T02:49:52;101102.79;;;4.83;100.00
38688;BME280;24444;53.216;-6.664;2022-09-16T02:52:26;101099.56;;;4.91;100.00
38688;BME280;24444;53.216;-6.664;2022-09-16T02:55:04;101100.23;;;4.54;100.00
38688;BME280;24444;53.216;-6.664;2022-09-16T02:57:36;101104.39;;;4.44;100.00
38688;BME280;24444;53.216;-6.664;2022-09-16T03:00:05;101100.24;;;4.47;100.00
38688;BME280;24444;53.216;-6.664;2022-09-16T03:02:33;101097.46;;;4.98;100.00
38688;BME280;24444;53.216;-6.664;2022-09-16T03:05:01;101100.70;;;4.53;100.00
38688;BME280;24444;53.216;-6.664;2022-09-16T03:07:29;101102.67;;;4.41;100.00
38688;BME280;24444;53.216;-6.664;2022-09-16T03:09:56;101101.31;;;4.20;100.00
38688;BME280;24444;53.216;-6.664;2022-09-16T03:12:34;101100.57;;;4.19;100.00
38688;BME280;24444;53.216;-6.664;2022-09-16T03:15:20;101103.64;;;4.56;100.00
38688;BME280;24444;53.216;-6.664;2022-09-16T03:18:03;101102.58;;;4.37;100.00
38688;BME280;24444;53.216;-6.664;2022-09-16T03:20:41;101097.91;;;4.04;100.00
38688;BME280;24444;53.216;-6.664;2022-09-16T03:23:21;101097.90;;;4.68;100.00
38688;BME280;24444;53.216;-6.664;2022-09-16T03:25:57;101100.32;;;4.54;100.00
38688;BME280;24444;53.216;-6.664;2022-09-16T03:28:27;101100.27;;;4.67;100.00
38688;BME280;24444;53.216;-6.664;2022-09-16T03:31:01;101103.16;;;4.33;100.00
38688;BME280;24444;53.216;-6.664;2022-09-16T03:33:34;101104.12;;;4.19;100.00
38688;BME280;24444;53.216;-6.664;2022-09-16T03:36:06;101104.53;;;4.33;100.00
38688;BME280;24444;53.216;-6.664;2022-09-16T03:38:35;101104.50;;;4.15;100.00
38688;BME280;24444;53.216;-6.664;2022-09-16T03:41:05;101105.67;;;4.01;100.00
38688;BME280;24444;53.216;-6.664;2022-09-16T03:43:34;101109.92;;;3.64;100.00
38688;BME280;24444;53.216;-6.664;2022-09-16T03:46:01;101109.22;;;4.14;100.00
38688;BME280;24444;53.216;-6.664;2022-09-16T03:48:29;101110.02;;;4.17;100.00
38688;BME280;24444;53.216;-6.664;2022-09-16T03:50:57;101112.76;;;4.00;100.00
38688;BME280;24444;53.216;-6.664;2022-09-16T03:53:24;101113.92;;;3.90;100.00
38688;BME280;24444;53.216;-6.664;2022-09-16T03:55:50;101112.39;;;4.00;100.00
38688;BME280;24444;53.216;-6.664;2022-09-16T03:58:18;101112.20;;;4.16;100.00
38688;BME280;24444;53.216;-6.664;2022-09-16T04:00:48;101110.21;;;3.97;100.00
38688;BME280;24444;53.216;-6.664;2022-09-16T04:03:15;101115.93;;;3.84;100.00
38688;BME280;24444;53.216;-6.664;2022-09-16T04:05:43;101121.91;;;3.55;100.00
38688;BME280;24444;53.216;-6.664;2022-09-16T04:08:11;101124.98;;;3.86;100.00
38688;BME280;24444;53.216;-6.664;2022-09-16T04:10:38;101128.49;;;3.00;100.00
38688;BME280;24444;53.216;-6.664;2022-09-16T04:13:05;101130.42;;;3.26;100.00
38688;BME280;24444;53.216;-6.664;2022-09-16T04:15:35;101128.65;;;3.43;100.00
38688;BME280;24444;53.216;-6.664;2022-09-16T04:18:02;101127.41;;;3.08;100.00
38688;BME280;24444;53.216;-6.664;2022-09-16T04:20:29;101129.50;;;3.73;100.00
38688;BME280;24444;53.216;-6.664;2022-09-16T04:22:56;101130.11;;;2.87;100.00
38688;BME280;24444;53.216;-6.664;2022-09-16T04:25:23;101131.63;;;3.11;100.00
38688;BME280;24444;53.216;-6.664;2022-09-16T04:27:50;101130.25;;;3.41;100.00
38688;BME280;24444;53.216;-6.664;2022-09-16T04:30:18;101133.04;;;3.64;100.00
38688;BME280;24444;53.216;-6.664;2022-09-16T04:32:45;101126.58;;;2.69;100.00
38688;BME280;24444;53.216;-6.664;2022-09-16T04:35:12;101125.90;;;3.35;100.00
38688;BME280;24444;53.216;-6.664;2022-09-16T04:37:40;101125.72;;;3.12;100.00
38688;BME280;24444;53.216;-6.664;2022-09-16T04:40:07;101125.60;;;3.62;100.00
38688;BME280;24444;53.216;-6.664;2022-09-16T04:42:34;101128.41;;;3.79;100.00
38688;BME280;24444;53.216;-6.664;2022-09-16T04:45:02;101128.73;;;3.46;100.00
38688;BME280;24444;53.216;-6.664;2022-09-16T04:47:29;101136.12;;;3.67;100.00
38688;BME280;24444;53.216;-6.664;2022-09-16T04:49:56;101138.77;;;3.19;100.00
38688;BME280;24444;53.216;-6.664;2022-09-16T04:52:23;101138.04;;;3.15;100.00
38688;BME280;24444;53.216;-6.664;2022-09-16T04:54:50;101139.03;;;3.59;100.00
38688;BME280;24444;53.216;-6.664;2022-09-16T04:57:17;101135.35;;;3.06;100.00
38688;BME280;24444;53.216;-6.664;2022-09-16T04:59:45;101135.72;;;2.92;100.00
38688;BME280;24444;53.216;-6.664;2022-09-16T05:02:11;101138.24;;;3.28;100.00
38688;BME280;24444;53.216;-6.664;2022-09-16T05:04:38;101144.56;;;3.50;100.00
38688;BME280;24444;53.216;-6.664;2022-09-16T05:07:05;101147.83;;;3.26;100.00
38688;BME280;24444;53.216;-6.664;2022-09-16T05:09:33;101150.18;;;2.95;100.00
38688;BME280;24444;53.216;-6.664;2022-09-16T05:12:00;101148.63;;;2.82;100.00
38688;BME280;24444;53.216;-6.664;2022-09-16T05:14:28;101154.46;;;2.93;100.00
38688;BME280;24444;53.216;-6.664;2022-09-16T05:16:55;101155.82;;;3.23;100.00
38688;BME280;24444;53.216;-6.664;2022-09-16T05:19:22;101162.33;;;2.67;100.00
38688;BME280;24444;53.216;-6.664;2022-09-16T05:21:49;101162.32;;;2.96;100.00
38688;BME280;24444;53.216;-6.664;2022-09-16T05:24:16;101162.01;;;3.02;100.00
38688;BME280;24444;53.216;-6.664;2022-09-16T05:26:43;101162.72;;;2.80;100.00
38688;BME280;24444;53.216;-6.664;2022-09-16T05:29:12;101167.41;;;3.02;100.00
38688;BME280;24444;53.216;-6.664;2022-09-16T05:31:41;101171.42;;;2.89;100.00
38688;BME280;24444;53.216;-6.664;2022-09-16T05:34:13;101175.14;;;2.35;100.00
38688;BME280;24444;53.216;-6.664;2022-09-16T05:36:42;101179.00;;;2.61;100.00
38688;BME280;24444;53.216;-6.664;2022-09-16T05:39:10;101177.29;;;2.66;100.00
38688;BME280;24444;53.216;-6.664;2022-09-16T05:41:37;101182.65;;;2.72;100.00
38688;BME280;24444;53.216;-6.664;2022-09-16T05:44:05;101183.58;;;2.79;100.00
38688;BME280;24444;53.216;-6.664;2022-09-16T05:46:33;101183.05;;;2.78;100.00
38688;BME280;24444;53.216;-6.664;2022-09-16T05:49:01;101184.12;;;3.17;100.00
38688;BME280;24444;53.216;-6.664;2022-09-16T05:51:28;101181.80;;;2.61;100.00
38688;BME280;24444;53.216;-6.664;2022-09-16T05:53:55;101185.75;;;2.18;100.00
38688;BME280;24444;53.216;-6.664;2022-09-16T05:56:26;101189.30;;;0.98;100.00
38688;BME280;24444;53.216;-6.664;2022-09-16T05:58:56;101192.42;;;2.23;100.00
38688;BME280;24444;53.216;-6.664;2022-09-16T06:01:25;101192.48;;;1.96;100.00
38688;BME280;24444;53.216;-6.664;2022-09-16T06:03:53;101196.03;;;1.90;100.00
38688;BME280;24444;53.216;-6.664;2022-09-16T06:06:24;101200.06;;;2.56;100.00
38688;BME280;24444;53.216;-6.664;2022-09-16T06:08:53;101205.57;;;2.43;100.00
38688;BME280;24444;53.216;-6.664;2022-09-16T06:11:21;101204.98;;;2.23;100.00
38688;BME280;24444;53.216;-6.664;2022-09-16T06:13:52;101205.27;;;2.47;100.00
38688;BME280;24444;53.216;-6.664;2022-09-16T06:16:20;101209.04;;;2.33;100.00
38688;BME280;24444;53.216;-6.664;2022-09-16T06:18:47;101212.69;;;2.45;100.00
38688;BME280;24444;53.216;-6.664;2022-09-16T06:21:14;101216.70;;;2.92;100.00
38688;BME280;24444;53.216;-6.664;2022-09-16T06:23:41;101217.60;;;2.97;100.00
38688;BME280;24444;53.216;-6.664;2022-09-16T06:26:12;101222.18;;;3.06;100.00
38688;BME280;24444;53.216;-6.664;2022-09-16T06:28:40;101221.61;;;2.51;100.00
38688;BME280;24444;53.216;-6.664;2022-09-16T06:31:09;101223.51;;;3.05;100.00
38688;BME280;24444;53.216;-6.664;2022-09-16T06:33:37;101227.34;;;2.75;100.00
38688;BME280;24444;53.216;-6.664;2022-09-16T06:36:06;101232.29;;;2.34;100.00
38688;BME280;24444;53.216;-6.664;2022-09-16T06:38:34;101238.38;;;2.67;100.00
38688;BME280;24444;53.216;-6.664;2022-09-16T06:41:04;101239.03;;;2.68;100.00
38688;BME280;24444;53.216;-6.664;2022-09-16T06:43:32;101243.03;;;2.67;100.00
38688;BME280;24444;53.216;-6.664;2022-09-16T06:46:01;101242.52;;;2.72;100.00
38688;BME280;24444;53.216;-6.664;2022-09-16T06:48:31;101246.24;;;2.74;100.00
38688;BME280;24444;53.216;-6.664;2022-09-16T06:50:59;101251.60;;;2.67;100.00
38688;BME280;24444;53.216;-6.664;2022-09-16T06:53:27;101252.25;;;2.52;100.00
38688;BME280;24444;53.216;-6.664;2022-09-16T06:55:58;101257.48;;;2.73;100.00
38688;BME280;24444;53.216;-6.664;2022-09-16T06:58:26;101261.04;;;3.07;100.00
38688;BME280;24444;53.216;-6.664;2022-09-16T07:00:54;101265.42;;;3.10;100.00
38688;BME280;24444;53.216;-6.664;2022-09-16T07:03:20;101263.51;;;2.85;100.00
38688;BME280;24444;53.216;-6.664;2022-09-16T07:05:55;101269.67;;;2.78;100.00
38688;BME280;24444;53.216;-6.664;2022-09-16T07:08:22;101268.02;;;3.43;100.00
38688;BME280;24444;53.216;-6.664;2022-09-16T07:10:55;101265.67;;;2.96;100.00
38688;BME280;24444;53.216;-6.664;2022-09-16T07:13:23;101269.69;;;2.78;100.00
38688;BME280;24444;53.216;-6.664;2022-09-16T07:15:50;101264.37;;;2.86;100.00
38688;BME280;24444;53.216;-6.664;2022-09-16T07:18:19;101268.12;;;3.21;100.00
38688;BME280;24444;53.216;-6.664;2022-09-16T07:20:46;101271.36;;;3.22;100.00
38688;BME280;24444;53.216;-6.664;2022-09-16T07:23:13;101271.77;;;3.10;100.00
38688;BME280;24444;53.216;-6.664;2022-09-16T07:25:41;101270.64;;;2.67;100.00
38688;BME280;24444;53.216;-6.664;2022-09-16T07:28:08;101274.04;;;3.23;100.00
38688;BME280;24444;53.216;-6.664;2022-09-16T07:30:35;101279.38;;;3.25;100.00
38688;BME280;24444;53.216;-6.664;2022-09-16T07:33:02;101280.61;;;3.00;100.00
38688;BME280;24444;53.216;-6.664;2022-09-16T07:35:30;101282.34;;;2.93;100.00
38688;BME280;24444;53.216;-6.664;2022-09-16T07:37:59;101284.12;;;3.29;100.00
38688;BME280;24444;53.216;-6.664;2022-09-16T07:40:26;101287.86;;;3.78;100.00
38688;BME280;24444;53.216;-6.664;2022-09-16T07:42:54;101293.87;;;3.36;100.00
38688;BME280;24444;53.216;-6.664;2022-09-16T07:45:22;101294.03;;;3.47;100.00
38688;BME280;24444;53.216;-6.664;2022-09-16T07:47:49;101293.33;;;4.04;100.00
38688;BME280;24444;53.216;-6.664;2022-09-16T07:50:16;101294.84;;;3.65;100.00
38688;BME280;24444;53.216;-6.664;2022-09-16T07:52:43;101292.98;;;4.30;100.00
38688;BME280;24444;53.216;-6.664;2022-09-16T07:55:10;101294.83;;;3.68;100.00
38688;BME280;24444;53.216;-6.664;2022-09-16T07:57:37;101300.52;;;4.09;100.00
38688;BME280;24444;53.216;-6.664;2022-09-16T08:00:05;101306.57;;;3.81;100.00
38688;BME280;24444;53.216;-6.664;2022-09-16T08:02:32;101314.21;;;4.05;100.00
38688;BME280;24444;53.216;-6.664;2022-09-16T08:05:00;101310.58;;;4.47;100.00
38688;BME280;24444;53.216;-6.664;2022-09-16T08:07:27;101306.45;;;4.41;100.00
38688;BME280;24444;53.216;-6.664;2022-09-16T08:09:55;101308.83;;;4.46;100.00
38688;BME280;24444;53.216;-6.664;2022-09-16T08:12:22;101312.54;;;4.84;100.00
38688;BME280;24444;53.216;-6.664;2022-09-16T08:14:49;101308.95;;;4.75;100.00
38688;BME280;24444;53.216;-6.664;2022-09-16T08:17:17;101309.86;;;4.85;100.00
38688;BME280;24444;53.216;-6.664;2022-09-16T08:19:44;101308.99;;;5.54;100.00
38688;BME280;24444;53.216;-6.664;2022-09-16T08:22:11;101308.96;;;8.00;98.45
38688;BME280;24444;53.216;-6.664;2022-09-16T08:24:39;101308.95;;;10.28;88.52
38688;BME280;24444;53.216;-6.664;2022-09-16T08:27:06;101312.18;;;11.39;79.41
38688;BME280;24444;53.216;-6.664;2022-09-16T08:29:34;101306.59;;;11.90;69.80
38688;BME280;24444;53.216;-6.664;2022-09-16T08:32:02;101299.85;;;12.97;66.77
38688;BME280;24444;53.216;-6.664;2022-09-16T08:34:29;101307.02;;;12.61;62.22
38688;BME280;24444;53.216;-6.664;2022-09-16T08:36:57;101314.58;;;11.92;62.08
38688;BME280;24444;53.216;-6.664;2022-09-16T08:39:24;101317.81;;;11.94;61.11
38688;BME280;24444;53.216;-6.664;2022-09-16T08:42:11;101325.09;;;12.43;59.24
38688;BME280;24444;53.216;-6.664;2022-09-16T08:44:53;101329.23;;;12.80;59.12
38688;BME280;24444;53.216;-6.664;2022-09-16T08:47:34;101339.50;;;14.49;58.53
38688;BME280;24444;53.216;-6.664;2022-09-16T08:50:13;101341.03;;;13.51;55.44
38688;BME280;24444;53.216;-6.664;2022-09-16T08:52:43;101341.55;;;12.91;56.74
38688;BME280;24444;53.216;-6.664;2022-09-16T08:55:15;101341.16;;;14.41;54.16
38688;BME280;24444;53.216;-6.664;2022-09-16T08:57:51;101339.22;;;12.36;57.94
38688;BME280;24444;53.216;-6.664;2022-09-16T09:00:20;101343.60;;;12.78;56.76
38688;BME280;24444;53.216;-6.664;2022-09-16T09:02:51;101352.97;;;14.09;54.76
38688;BME280;24444;53.216;-6.664;2022-09-16T09:05:30;101348.04;;;14.23;51.53
38688;BME280;24444;53.216;-6.664;2022-09-16T09:08:11;101346.42;;;14.00;52.36
38688;BME280;24444;53.216;-6.664;2022-09-16T09:10:44;101349.91;;;15.49;49.14
38688;BME280;24444;53.216;-6.664;2022-09-16T09:13:32;101351.81;;;15.21;48.56
38688;BME280;24444;53.216;-6.664;2022-09-16T09:16:09;101354.22;;;14.50;47.73
38688;BME280;24444;53.216;-6.664;2022-09-16T09:18:49;101355.27;;;14.97;47.10
38688;BME280;24444;53.216;-6.664;2022-09-16T09:21:25;101359.02;;;14.74;49.09
38688;BME280;24444;53.216;-6.664;2022-09-16T09:24:08;101362.22;;;14.50;47.92
38688;BME280;24444;53.216;-6.664;2022-09-16T09:26:47;101358.30;;;14.19;50.52
38688;BME280;24444;53.216;-6.664;2022-09-16T09:29:29;101352.87;;;14.36;49.92
38688;BME280;24444;53.216;-6.664;2022-09-16T09:32:11;101358.10;;;15.67;46.32
38688;BME280;24444;53.216;-6.664;2022-09-16T09:34:48;101354.90;;;16.38;45.01
38688;BME280;24444;53.216;-6.664;2022-09-16T09:37:31;101353.83;;;14.75;46.41
38688;BME280;24444;53.216;-6.664;2022-09-16T09:40:09;101355.29;;;15.81;44.17
38688;BME280;24444;53.216;-6.664;2022-09-16T09:42:42;101361.38;;;15.58;43.71
38688;BME280;24444;53.216;-6.664;2022-09-16T09:45:18;101356.69;;;16.32;41.46
38688;BME280;24444;53.216;-6.664;2022-09-16T09:47:50;101353.04;;;16.19;41.48
38688;BME280;24444;53.216;-6.664;2022-09-16T09:50:24;101352.02;;;17.18;43.56
38688;BME280;24444;53.216;-6.664;2022-09-16T09:52:58;101356.75;;;15.96;41.94
38688;BME280;24444;53.216;-6.664;2022-09-16T09:55:31;101360.08;;;15.12;42.67
38688;BME280;24444;53.216;-6.664;2022-09-16T09:58:08;101356.13;;;16.64;41.32
38688;BME280;24444;53.216;-6.664;2022-09-16T10:00:40;101353.75;;;15.44;43.37
38688;BME280;24444;53.216;-6.664;2022-09-16T10:03:11;101350.51;;;16.93;41.26
38688;BME280;24444;53.216;-6.664;2022-09-16T10:05:39;101346.88;;;16.90;39.97
38688;BME280;24444;53.216;-6.664;2022-09-16T10:08:22;101350.00;;;15.63;41.63
38688;BME280;24444;53.216;-6.664;2022-09-16T10:10:52;101343.96;;;16.59;40.77
38688;BME280;24444;53.216;-6.664;2022-09-16T10:13:21;101339.02;;;16.03;41.76
38688;BME280;24444;53.216;-6.664;2022-09-16T10:15:51;101339.25;;;15.58;42.92
38688;BME280;24444;53.216;-6.664;2022-09-16T10:18:23;101339.85;;;15.57;41.62
38688;BME280;24444;53.216;-6.664;2022-09-16T10:21:08;101345.96;;;17.41;41.21
38688;BME280;24444;53.216;-6.664;2022-09-16T10:23:36;101347.47;;;16.95;39.61
38688;BME280;24444;53.216;-6.664;2022-09-16T10:26:06;101352.56;;;16.40;39.67
38688;BME280;24444;53.216;-6.664;2022-09-16T10:28:52;101361.89;;;16.36;38.93
38688;BME280;24444;53.216;-6.664;2022-09-16T10:31:20;101362.44;;;14.08;40.05
38688;BME280;24444;53.216;-6.664;2022-09-16T10:33:48;101356.96;;;15.60;41.40
38688;BME280;24444;53.216;-6.664;2022-09-16T10:36:19;101349.13;;;16.13;41.15
38688;BME280;24444;53.216;-6.664;2022-09-16T10:38:49;101353.92;;;15.76;39.58
38688;BME280;24444;53.216;-6.664;2022-09-16T10:41:21;101348.66;;;16.61;37.75
38688;BME280;24444;53.216;-6.664;2022-09-16T10:43:51;101347.77;;;18.12;38.57
38688;BME280;24444;53.216;-6.664;2022-09-16T10:46:19;101344.91;;;17.46;37.23
38688;BME280;24444;53.216;-6.664;2022-09-16T10:48:48;101344.50;;;17.47;37.38
38688;BME280;24444;53.216;-6.664;2022-09-16T10:51:21;101344.63;;;18.06;38.98
38688;BME280;24444;53.216;-6.664;2022-09-16T10:53:52;101351.64;;;18.22;36.39
38688;BME280;24444;53.216;-6.664;2022-09-16T10:56:22;101357.04;;;15.95;37.78
38688;BME280;24444;53.216;-6.664;2022-09-16T10:59:01;101357.28;;;13.61;40.56
38688;BME280;24444;53.216;-6.664;2022-09-16T11:01:37;101360.11;;;14.64;42.69
38688;BME280;24444;53.216;-6.664;2022-09-16T11:04:24;101358.51;;;13.00;43.29
38688;BME280;24444;53.216;-6.664;2022-09-16T11:07:06;101357.32;;;13.35;43.07
38688;BME280;24444;53.216;-6.664;2022-09-16T11:09:44;101349.82;;;14.42;41.68
38688;BME280;24444;53.216;-6.664;2022-09-16T11:13:14;101343.67;;;15.00;41.29
38688;BME280;24444;53.216;-6.664;2022-09-16T11:15:57;101346.48;;;16.08;39.81
38688;BME280;24444;53.216;-6.664;2022-09-16T11:18:39;101354.47;;;14.40;40.11
38688;BME280;24444;53.216;-6.664;2022-09-16T11:21:18;101356.23;;;16.01;37.98
38688;BME280;24444;53.216;-6.664;2022-09-16T11:23:59;101353.16;;;17.40;36.75
38688;BME280;24444;53.216;-6.664;2022-09-16T11:26:36;101351.00;;;16.60;36.94
38688;BME280;24444;53.216;-6.664;2022-09-16T11:29:19;101354.11;;;16.37;38.82
38688;BME280;24444;53.216;-6.664;2022-09-16T11:31:55;101356.31;;;13.50;40.00
38688;BME280;24444;53.216;-6.664;2022-09-16T11:34:36;101355.71;;;13.54;43.25
38688;BME280;24444;53.216;-6.664;2022-09-16T11:37:14;101359.50;;;14.74;40.50
38688;BME280;24444;53.216;-6.664;2022-09-16T11:39:58;101359.15;;;14.63;39.01
38688;BME280;24444;53.216;-6.664;2022-09-16T11:42:33;101365.90;;;14.25;37.60
38688;BME280;24444;53.216;-6.664;2022-09-16T11:45:10;101363.30;;;15.31;37.14
38688;BME280;24444;53.216;-6.664;2022-09-16T11:47:52;101357.01;;;15.44;37.80
38688;BME280;24444;53.216;-6.664;2022-09-16T11:50:32;101358.93;;;15.86;37.23
38688;BME280;24444;53.216;-6.664;2022-09-16T11:53:29;101363.86;;;16.80;35.53
38688;BME280;24444;53.216;-6.664;2022-09-16T11:56:05;101364.59;;;16.27;34.43
38688;BME280;24444;53.216;-6.664;2022-09-16T11:58:44;101368.56;;;15.46;35.18
38688;BME280;24444;53.216;-6.664;2022-09-16T12:01:27;101365.19;;;16.18;37.72
38688;BME280;24444;53.216;-6.664;2022-09-16T12:04:01;101358.95;;;16.65;38.83
38688;BME280;24444;53.216;-6.664;2022-09-16T12:06:37;101355.29;;;17.12;37.81
38688;BME280;24444;53.216;-6.664;2022-09-16T12:09:13;101360.75;;;15.11;37.64
38688;BME280;24444;53.216;-6.664;2022-09-16T12:11:45;101361.59;;;15.51;38.02
38688;BME280;24444;53.216;-6.664;2022-09-16T12:14:17;101365.75;;;14.78;38.42
38688;BME280;24444;53.216;-6.664;2022-09-16T12:16:49;101364.54;;;14.25;40.01
38688;BME280;24444;53.216;-6.664;2022-09-16T12:19:21;101377.31;;;13.76;39.80
38688;BME280;24444;53.216;-6.664;2022-09-16T12:21:53;101373.22;;;13.54;38.68
38688;BME280;24444;53.216;-6.664;2022-09-16T12:24:26;101378.63;;;14.85;38.38
38688;BME280;24444;53.216;-6.664;2022-09-16T12:27:02;101374.55;;;15.07;37.72
38688;BME280;24444;53.216;-6.664;2022-09-16T12:29:38;101375.17;;;15.14;36.52
38688;BME280;24444;53.216;-6.664;2022-09-16T12:32:12;101384.42;;;15.45;36.65
38688;BME280;24444;53.216;-6.664;2022-09-16T12:34:47;101374.03;;;14.74;40.23
38688;BME280;24444;53.216;-6.664;2022-09-16T12:37:28;101382.06;;;14.47;37.20
38688;BME280;24444;53.216;-6.664;2022-09-16T12:39:58;101382.02;;;14.38;38.74
38688;BME280;24444;53.216;-6.664;2022-09-16T12:43:44;101380.74;;;15.13;40.18
38688;BME280;24444;53.216;-6.664;2022-09-16T12:46:27;101374.56;;;13.98;39.70
38688;BME280;24444;53.216;-6.664;2022-09-16T12:49:14;101371.47;;;13.72;39.94
38688;BME280;24444;53.216;-6.664;2022-09-16T12:53:26;101366.00;;;13.77;39.83
38688;BME280;24444;53.216;-6.664;2022-09-16T12:56:04;101363.86;;;13.53;44.07
38688;BME280;24444;53.216;-6.664;2022-09-16T12:59:04;101359.22;;;12.34;40.82
38688;BME280;24444;53.216;-6.664;2022-09-16T13:01:41;101368.63;;;13.81;41.00
38688;BME280;24444;53.216;-6.664;2022-09-16T13:04:14;101360.35;;;13.63;38.25
38688;BME280;24444;53.216;-6.664;2022-09-16T13:06:46;101361.24;;;13.96;36.93
38688;BME280;24444;53.216;-6.664;2022-09-16T13:09:20;101351.92;;;13.51;35.60
38688;BME280;24444;53.216;-6.664;2022-09-16T13:11:53;101347.13;;;13.16;37.22